createdAt,value
2023-03-11T00:01:30.423Z,0.80
2023-03-11T00:04:02.299Z,0.89
2023-03-11T00:06:32.735Z,0.93
2023-03-11T00:09:03.339Z,0.92
2023-03-11T00:11:34.005Z,0.91
2023-03-11T00:14:04.525Z,0.91
2023-03-11T00:16:37.662Z,0.91
2023-03-11T00:19:08.111Z,0.89
2023-03-11T00:21:38.713Z,0.86
2023-03-11T00:24:10.073Z,0.95
2023-03-11T00:26:40.722Z,0.99
2023-03-11T00:29:11.319Z,0.99
2023-03-11T00:31:44.359Z,1.01
2023-03-11T00:34:14.966Z,1.01
2023-03-11T00:36:45.514Z,0.91
2023-03-11T00:39:16.072Z,0.99
2023-03-11T00:41:47.912Z,1.04
2023-03-11T00:44:18.505Z,0.85
2023-03-11T00:46:53.127Z,1.01
2023-03-11T00:49:23.789Z,1.04
2023-03-11T00:51:54.496Z,1.05
2023-03-11T00:54:25.324Z,1.07
2023-03-11T00:56:55.923Z,1.03
2023-03-11T00:59:26.500Z,1.04
2023-03-11T01:01:59.860Z,1.04
2023-03-11T01:04:30.892Z,1.07
2023-03-11T01:07:01.486Z,1.05
2023-03-11T01:09:32.146Z,1.05
2023-03-11T01:12:02.598Z,0.76
2023-03-11T01:14:33.191Z,0.96
2023-03-11T01:17:06.299Z,0.99
2023-03-11T01:19:36.860Z,0.96
2023-03-11T01:22:07.462Z,1.01
2023-03-11T01:24:38.386Z,0.95
2023-03-11T01:27:09.280Z,0.95
2023-03-11T01:29:39.890Z,0.92
2023-03-11T01:32:13.997Z,0.93
2023-03-11T01:34:44.562Z,0.95
2023-03-11T01:37:15.012Z,0.94
2023-03-11T01:39:46.054Z,0.83
2023-03-11T01:42:16.473Z,0.91
2023-03-11T01:44:47.311Z,0.93
2023-03-11T01:47:40.118Z,0.91
2023-03-11T01:50:15.810Z,0.92
2023-03-11T01:52:47.678Z,0.92
2023-03-11T01:55:21.372Z,0.91
2023-03-11T01:57:52.980Z,0.63
2023-03-11T02:00:24.296Z,0.97
2023-03-11T02:03:01.133Z,0.98
2023-03-11T02:05:32.001Z,0.95
2023-03-11T02:08:04.991Z,0.87
2023-03-11T02:10:37.717Z,0.84
2023-03-11T02:13:08.378Z,0.87
2023-03-11T02:15:40.130Z,0.85
2023-03-11T02:18:18.659Z,0.85
2023-03-11T02:20:55.769Z,0.77
2023-03-11T02:23:32.739Z,0.65
2023-03-11T02:26:10.356Z,0.65
2023-03-11T02:28:45.497Z,0.66
2023-03-11T02:31:16.604Z,0.70
2023-03-11T02:33:50.269Z,0.62
2023-03-11T02:36:38.865Z,0.81
2023-03-11T02:39:12.962Z,0.80
2023-03-11T02:41:46.960Z,0.80
2023-03-11T02:44:20.250Z,0.80
2023-03-11T02:46:51.200Z,0.76
2023-03-11T02:49:24.420Z,0.83
2023-03-11T02:51:55.197Z,0.95
2023-03-11T02:54:25.874Z,0.97
2023-03-11T02:56:56.354Z,0.99
2023-03-11T02:59:29.422Z,0.99
2023-03-11T03:02:01.442Z,0.99
2023-03-11T03:04:33.143Z,1.03
2023-03-11T03:07:04.742Z,1.06
2023-03-11T03:09:35.907Z,1.06
2023-03-11T03:12:07.489Z,0.99
2023-03-11T03:14:42.243Z,0.97
2023-03-11T03:17:14.063Z,0.90
2023-03-11T03:19:44.562Z,0.98
2023-03-11T03:22:16.343Z,1.00
2023-03-11T03:24:48.117Z,1.00
2023-03-11T03:27:19.373Z,1.01
2023-03-11T03:29:52.659Z,0.97
2023-03-11T03:32:23.888Z,0.97
2023-03-11T03:34:58.461Z,0.96
2023-03-11T03:37:40.004Z,0.96
2023-03-11T03:40:13.127Z,0.92
2023-03-11T03:42:43.637Z,0.88
2023-03-11T03:45:17.189Z,0.98
2023-03-11T03:47:48.379Z,1.02
2023-03-11T03:50:19.252Z,1.04
2023-03-11T03:52:52.059Z,0.99
2023-03-11T03:55:24.544Z,1.01
2023-03-11T03:57:56.238Z,1.02
2023-03-11T04:00:32.161Z,1.02
2023-03-11T04:03:06.105Z,0.97
2023-03-11T04:05:44.893Z,0.98
2023-03-11T04:08:17.596Z,0.95
2023-03-11T04:10:58.756Z,0.93
2023-03-11T04:13:30.862Z,0.91
2023-03-11T04:16:06.197Z,0.94
2023-03-11T04:18:37.342Z,0.92
2023-03-11T04:21:10.406Z,0.94
2023-03-11T04:23:41.407Z,0.97
2023-03-11T04:26:13.016Z,1.00
2023-03-11T04:28:43.636Z,0.96
2023-03-11T04:31:17.207Z,0.96
2023-03-11T04:33:47.869Z,1.00
2023-03-11T04:36:18.841Z,1.03
2023-03-11T04:38:49.410Z,0.99
2023-03-11T04:41:21.021Z,0.87
2023-03-11T04:43:51.494Z,0.77
2023-03-11T04:46:24.881Z,0.70
2023-03-11T04:48:55.783Z,0.66
2023-03-11T04:51:26.360Z,0.59
2023-03-11T04:53:57.188Z,0.47
2023-03-11T04:56:28.705Z,0.46
2023-03-11T04:58:59.300Z,0.48
2023-03-11T05:01:33.276Z,0.47
2023-03-11T05:04:07.281Z,0.53
2023-03-11T05:06:38.347Z,0.60
2023-03-11T05:09:09.829Z,0.64
2023-03-11T05:11:43.661Z,0.68
2023-03-11T05:14:15.426Z,0.72
2023-03-11T05:16:48.773Z,0.73
2023-03-11T05:19:31.704Z,0.68
2023-03-11T05:22:05.370Z,0.72
2023-03-11T05:24:36.858Z,0.69
2023-03-11T05:27:08.477Z,0.74
2023-03-11T05:29:40.943Z,0.74
2023-03-11T05:32:17.093Z,0.68
2023-03-11T05:34:49.714Z,0.67
2023-03-11T05:37:21.479Z,0.71
2023-03-11T05:39:54.834Z,0.75
2023-03-11T05:42:26.473Z,0.75
2023-03-11T05:44:59.206Z,0.72
2023-03-11T05:47:33.493Z,0.80
2023-03-11T05:50:04.431Z,0.83
2023-03-11T05:52:35.393Z,0.66
2023-03-11T05:55:06.584Z,0.82
2023-03-11T05:57:37.724Z,0.82
2023-03-11T06:00:12.474Z,0.79
2023-03-11T06:02:53.199Z,0.78
2023-03-11T06:05:24.528Z,0.72
2023-03-11T06:07:56.980Z,0.75
2023-03-11T06:10:28.062Z,0.77
2023-03-11T06:12:58.505Z,0.84
2023-03-11T06:15:40.704Z,0.59
2023-03-11T06:18:14.018Z,0.86
2023-03-11T06:20:44.594Z,0.94
2023-03-11T06:23:15.064Z,1.01
2023-03-11T06:25:45.516Z,0.96
2023-03-11T06:28:16.126Z,1.05
2023-03-11T06:30:48.493Z,1.02
2023-03-11T06:33:22.502Z,1.05
2023-03-11T06:36:00.689Z,1.05
2023-03-11T06:38:31.629Z,1.10
2023-03-11T06:41:03.911Z,1.15
2023-03-11T06:43:37.066Z,1.16
2023-03-11T06:46:12.442Z,1.24
2023-03-11T06:48:47.305Z,1.18
2023-03-11T06:51:20.355Z,1.16
2023-03-11T06:53:52.702Z,1.12
2023-03-11T06:56:25.598Z,1.18
2023-03-11T06:59:01.031Z,1.22
2023-03-11T07:01:35.098Z,1.25
2023-03-11T07:04:12.447Z,1.29
2023-03-11T07:06:45.674Z,1.30
2023-03-11T07:09:22.517Z,1.27
2023-03-11T07:11:53.044Z,1.30
2023-03-11T07:14:30.155Z,1.36
2023-03-11T07:17:01.578Z,1.41
2023-03-11T07:19:42.476Z,1.35
2023-03-11T07:22:12.986Z,1.30
2023-03-11T07:24:43.686Z,1.33
2023-03-11T07:27:14.136Z,1.35
2023-03-11T07:29:44.706Z,1.37
2023-03-11T07:32:19.100Z,1.40
2023-03-11T07:34:52.008Z,1.54
2023-03-11T07:37:22.471Z,1.56
2023-03-11T07:39:53.105Z,1.59
2023-03-11T07:42:23.627Z,1.63
2023-03-11T07:44:56.148Z,1.66
2023-03-11T07:47:26.732Z,1.71
2023-03-11T07:50:00.074Z,1.74
2023-03-11T07:52:33.348Z,1.68
2023-03-11T07:55:04.174Z,1.75
2023-03-11T07:57:34.619Z,1.69
2023-03-11T08:00:05.557Z,1.60
2023-03-11T08:02:42.325Z,1.41
2023-03-11T08:05:15.881Z,1.73
2023-03-11T08:07:46.632Z,1.76
2023-03-11T08:10:17.129Z,1.75
2023-03-11T08:12:47.699Z,1.69
2023-03-11T08:15:18.401Z,1.69
2023-03-11T08:17:49.473Z,1.84
2023-03-11T08:20:22.663Z,1.89
2023-03-11T08:22:58.092Z,2.55
2023-03-11T08:25:29.619Z,2.78
2023-03-11T08:28:00.291Z,2.80
2023-03-11T08:30:30.790Z,2.74
2023-03-11T08:33:01.193Z,2.55
2023-03-11T08:35:34.734Z,2.58
2023-03-11T08:38:05.311Z,2.70
2023-03-11T08:40:35.899Z,2.68
2023-03-11T08:43:06.438Z,2.58
2023-03-11T08:45:37.539Z,2.52
2023-03-11T08:48:08.541Z,2.48
2023-03-11T08:50:53.510Z,2.55
2023-03-11T08:53:26.038Z,2.62
2023-03-11T08:55:56.533Z,2.79
2023-03-11T08:58:26.994Z,2.36
2023-03-11T09:00:58.028Z,2.68
2023-03-11T09:03:29.618Z,2.88
2023-03-11T09:06:04.017Z,3.03
2023-03-11T09:08:34.846Z,3.31
2023-03-11T09:11:05.716Z,3.42
2023-03-11T09:13:36.302Z,3.53
2023-03-11T09:16:07.957Z,3.37
2023-03-11T09:18:38.466Z,3.40
2023-03-11T09:21:13.826Z,3.45
2023-03-11T09:23:48.274Z,3.48
2023-03-11T09:26:18.830Z,3.38
2023-03-11T09:28:49.970Z,3.35
2023-03-11T09:31:21.336Z,3.35
2023-03-11T09:33:52.985Z,3.43
2023-03-11T09:36:26.216Z,3.43
2023-03-11T09:38:56.693Z,3.46
2023-03-11T09:41:47.886Z,3.49
2023-03-11T09:44:33.435Z,3.59
2023-03-11T09:47:20.964Z,3.77
2023-03-11T09:50:15.250Z,3.77
2023-03-11T09:52:56.271Z,3.66
2023-03-11T09:55:45.196Z,3.58
2023-03-11T09:58:20.608Z,3.71
2023-03-11T10:00:52.284Z,3.68
2023-03-11T10:03:33.202Z,3.83
2023-03-11T10:06:10.956Z,3.95
2023-03-11T10:08:48.515Z,4.21
2023-03-11T10:12:00.546Z,4.35
2023-03-11T10:14:47.719Z,4.24
2023-03-11T10:17:31.916Z,4.15
2023-03-11T10:20:10.056Z,3.89
2023-03-11T10:22:50.638Z,4.33
2023-03-11T10:25:28.291Z,4.56
2023-03-11T10:28:05.524Z,4.67
2023-03-11T10:30:42.423Z,4.67
2023-03-11T10:33:24.831Z,4.40
2023-03-11T10:35:57.736Z,4.33
2023-03-11T10:38:30.628Z,4.32
2023-03-11T10:41:09.917Z,4.48
2023-03-11T10:43:44.387Z,4.59
2023-03-11T10:46:21.574Z,4.61
2023-03-11T10:48:52.038Z,4.54
2023-03-11T10:51:26.898Z,4.49
2023-03-11T10:53:59.471Z,4.43
2023-03-11T10:56:36.089Z,4.47
2023-03-11T10:59:08.748Z,4.51
2023-03-11T11:01:39.335Z,4.47
2023-03-11T11:04:30.767Z,4.51
2023-03-11T11:07:02.209Z,4.48
2023-03-11T11:09:32.939Z,4.52
2023-03-11T11:12:08.534Z,4.51
2023-03-11T11:14:50.223Z,4.54
2023-03-11T11:17:23.743Z,4.73
2023-03-11T11:19:56.982Z,4.82
2023-03-11T11:22:28.512Z,4.76
2023-03-11T11:24:59.495Z,4.77
2023-03-11T11:27:32.929Z,4.92
2023-03-11T11:30:17.708Z,4.95
2023-03-11T11:32:47.884Z,5.01
2023-03-11T11:35:20.027Z,4.82
2023-03-11T11:37:52.672Z,5.03
2023-03-11T11:40:32.435Z,4.99
2023-03-11T11:43:09.617Z,5.04
2023-03-11T11:45:42.922Z,5.08
2023-03-11T11:48:20.746Z,5.01
2023-03-11T11:50:55.799Z,4.88
2023-03-11T11:53:37.808Z,4.85
2023-03-11T11:56:08.639Z,4.90
2023-03-11T11:58:43.777Z,5.10
2023-03-11T12:01:19.560Z,5.13
2023-03-11T12:04:22.795Z,5.27
2023-03-11T12:07:04.748Z,5.27
2023-03-11T12:09:43.050Z,5.12
2023-03-11T12:12:24.416Z,5.08
2023-03-11T12:15:04.263Z,5.14
2023-03-11T12:17:38.715Z,5.29
2023-03-11T12:20:15.205Z,5.33
2023-03-11T12:23:14.668Z,5.37
2023-03-11T12:25:55.472Z,5.31
2023-03-11T12:28:33.082Z,5.16
2023-03-11T12:31:10.598Z,5.10
2023-03-11T12:33:44.065Z,5.28
2023-03-11T12:36:32.200Z,5.21
2023-03-11T12:39:05.722Z,5.10
2023-03-11T12:41:40.158Z,5.13
2023-03-11T12:44:25.907Z,5.14
2023-03-11T12:47:27.423Z,5.10
2023-03-11T12:50:00.832Z,5.14
2023-03-11T12:52:34.420Z,5.12
2023-03-11T12:55:40.760Z,5.12
2023-03-11T12:58:58.908Z,5.22
2023-03-11T13:02:10.802Z,5.13
2023-03-11T13:04:54.924Z,5.05
2023-03-11T13:07:51.159Z,5.01
2023-03-11T13:10:37.636Z,5.08
2023-03-11T13:13:38.130Z,5.23
2023-03-11T13:16:39.558Z,5.20
2023-03-11T13:19:38.682Z,5.21
2023-03-11T13:22:46.104Z,5.21
2023-03-11T13:25:36.411Z,5.18
2023-03-11T13:28:27.017Z,5.45
2023-03-11T13:31:02.301Z,5.44
2023-03-11T13:33:44.221Z,5.39
2023-03-11T13:36:32.348Z,5.37
2023-03-11T13:39:35.546Z,5.37
2023-03-11T13:42:20.070Z,5.23
2023-03-11T13:44:50.872Z,5.41
2023-03-11T13:47:23.310Z,5.46
2023-03-11T13:49:57.545Z,5.56
2023-03-11T13:52:29.472Z,5.52
2023-03-11T13:55:06.493Z,5.38
2023-03-11T13:57:40.540Z,5.24
2023-03-11T14:00:24.091Z,5.18
2023-03-11T14:02:57.974Z,5.13
2023-03-11T14:05:30.242Z,5.15
2023-03-11T14:08:15.181Z,5.11
2023-03-11T14:10:55.287Z,5.08
2023-03-11T14:13:30.436Z,5.15
2023-03-11T14:16:06.454Z,5.02
2023-03-11T14:18:42.253Z,5.14
2023-03-11T14:21:18.254Z,5.19
2023-03-11T14:23:51.043Z,5.22
2023-03-11T14:26:23.566Z,5.21
2023-03-11T14:28:59.016Z,5.25
2023-03-11T14:31:34.515Z,5.25
2023-03-11T14:34:07.730Z,5.25
2023-03-11T14:36:48.633Z,5.27
2023-03-11T14:39:34.080Z,5.24
2023-03-11T14:42:18.829Z,5.20
2023-03-11T14:44:58.201Z,5.07
2023-03-11T14:47:38.548Z,4.96
2023-03-11T14:50:15.504Z,4.89
2023-03-11T14:52:50.190Z,4.92
2023-03-11T14:55:23.859Z,5.03
2023-03-11T14:57:58.119Z,5.07
2023-03-11T15:00:36.805Z,5.14
2023-03-11T15:03:17.196Z,5.12
2023-03-11T15:05:51.639Z,5.06
2023-03-11T15:08:24.360Z,5.01
2023-03-11T15:11:09.057Z,5.06
2023-03-11T15:13:41.495Z,5.02
2023-03-11T15:16:27.398Z,4.97
2023-03-11T15:18:57.911Z,4.96
2023-03-11T15:21:28.465Z,4.70
2023-03-11T15:24:05.399Z,4.83
2023-03-11T15:26:38.528Z,5.08
2023-03-11T15:29:17.346Z,4.98
2023-03-11T15:31:50.897Z,5.05
2023-03-11T15:34:32.919Z,5.02
2023-03-11T15:37:06.998Z,5.01
2023-03-11T15:39:51.200Z,4.97
2023-03-11T15:42:25.083Z,4.90
2023-03-11T15:45:06.046Z,4.82
2023-03-11T15:47:39.241Z,4.86
2023-03-11T15:50:40.200Z,4.91
2023-03-11T15:53:17.377Z,4.86
2023-03-11T15:55:47.949Z,4.74
2023-03-11T15:58:21.237Z,4.69
2023-03-11T16:00:53.700Z,4.44
2023-03-11T16:03:27.696Z,4.59
2023-03-11T16:05:59.207Z,4.53
2023-03-11T16:08:29.684Z,4.48
2023-03-11T16:11:00.400Z,4.45
2023-03-11T16:13:30.859Z,4.40
2023-03-11T16:16:04.149Z,4.38
2023-03-11T16:18:38.060Z,4.31
2023-03-11T16:21:11.927Z,4.25
2023-03-11T16:23:51.569Z,4.19
2023-03-11T16:26:25.238Z,4.10
2023-03-11T16:28:56.446Z,3.99
2023-03-11T16:31:28.261Z,4.01
2023-03-11T16:34:01.310Z,3.97
2023-03-11T16:36:31.784Z,3.90
2023-03-11T16:39:03.650Z,3.86
2023-03-11T16:41:44.686Z,3.80
2023-03-11T16:44:15.529Z,3.73
2023-03-11T16:46:46.032Z,3.68
2023-03-11T16:49:19.137Z,3.68
2023-03-11T16:51:49.872Z,3.53
2023-03-11T16:54:20.398Z,3.48
2023-03-11T16:56:51.003Z,3.54
2023-03-11T16:59:21.416Z,3.50
2023-03-11T17:01:52.057Z,3.47
2023-03-11T17:04:25.102Z,3.44
2023-03-11T17:06:55.601Z,3.42
2023-03-11T17:09:26.376Z,3.38
2023-03-11T17:11:57.103Z,3.35
2023-03-11T17:14:27.635Z,3.31
2023-03-11T17:16:58.188Z,3.29
2023-03-11T17:19:33.466Z,3.23
2023-03-11T17:22:04.206Z,3.21
2023-03-11T17:24:34.771Z,2.95
2023-03-11T17:27:05.332Z,3.12
2023-03-11T17:29:36.569Z,3.06
2023-03-11T17:32:07.689Z,3.02
2023-03-11T17:34:40.845Z,2.97
2023-03-11T17:37:11.935Z,2.92
2023-03-11T17:39:42.356Z,2.87
2023-03-11T17:42:13.088Z,2.61
2023-03-11T17:44:51.429Z,2.80
2023-03-11T17:47:26.150Z,2.82
2023-03-11T17:49:58.968Z,2.79
2023-03-11T17:52:29.392Z,2.77
2023-03-11T17:55:00.430Z,2.75
2023-03-11T17:57:35.393Z,2.74
2023-03-11T18:00:15.033Z,2.74
2023-03-11T18:02:45.805Z,2.71
2023-03-11T18:05:18.972Z,2.71
2023-03-11T18:07:52.623Z,2.68
2023-03-11T18:10:23.624Z,2.67
2023-03-11T18:12:54.498Z,2.64
2023-03-11T18:15:28.193Z,2.60
2023-03-11T18:17:59.179Z,2.58
2023-03-11T18:20:32.612Z,2.51
2023-03-11T18:23:03.681Z,2.47
2023-03-11T18:25:34.572Z,2.44
2023-03-11T18:28:05.542Z,2.46
2023-03-11T18:30:39.884Z,2.47
2023-03-11T18:33:09.996Z,2.45
2023-03-11T18:35:43.380Z,2.45
2023-03-11T18:38:14.224Z,2.47
2023-03-11T18:40:44.824Z,2.50
2023-03-11T18:43:16.892Z,2.51
2023-03-11T18:45:47.619Z,2.48
2023-03-11T18:48:18.185Z,2.56
2023-03-11T18:50:57.064Z,2.52
2023-03-11T18:53:27.713Z,2.54
2023-03-11T18:56:03.246Z,2.57
2023-03-11T18:58:33.934Z,2.58
2023-03-11T19:01:08.870Z,2.57
2023-03-11T19:03:39.535Z,2.56
2023-03-11T19:06:13.804Z,2.56
2023-03-11T19:08:43.979Z,2.51
2023-03-11T19:11:19.414Z,2.48
2023-03-11T19:13:50.582Z,2.46
2023-03-11T19:16:24.524Z,2.43
2023-03-11T19:18:55.901Z,2.40
2023-03-11T19:21:29.457Z,2.39
2023-03-11T19:24:00.668Z,2.39
2023-03-11T19:26:44.210Z,2.38
2023-03-11T19:29:16.347Z,2.36
2023-03-11T19:31:46.819Z,2.34
2023-03-11T19:34:17.297Z,2.33
2023-03-11T19:36:50.697Z,2.33
2023-03-11T19:39:21.113Z,2.30
2023-03-11T19:41:51.547Z,2.28
2023-03-11T19:44:21.992Z,2.24
2023-03-11T19:46:52.573Z,2.22
2023-03-11T19:49:23.036Z,2.22
2023-03-11T19:51:56.216Z,2.24
2023-03-11T19:54:26.732Z,2.25
2023-03-11T19:56:57.287Z,2.25
2023-03-11T19:59:27.778Z,2.18
2023-03-11T20:01:58.352Z,2.18
2023-03-11T20:04:29.209Z,2.14
2023-03-11T20:07:02.620Z,2.12
2023-03-11T20:09:34.425Z,2.13
2023-03-11T20:12:04.975Z,2.12
2023-03-11T20:14:35.471Z,1.86
2023-03-11T20:17:06.018Z,1.85
2023-03-11T20:19:36.780Z,2.09
2023-03-11T20:22:09.949Z,2.09
2023-03-11T20:24:40.399Z,2.09
2023-03-11T20:27:10.850Z,2.10
2023-03-11T20:29:41.380Z,2.08
2023-03-11T20:32:11.933Z,2.09
2023-03-11T20:34:42.537Z,2.10
2023-03-11T20:37:15.579Z,2.08
2023-03-11T20:39:46.011Z,2.07
2023-03-11T20:42:16.452Z,2.03
2023-03-11T20:44:46.883Z,2.03
2023-03-11T20:47:17.477Z,2.04
2023-03-11T20:49:48.411Z,2.03
2023-03-11T20:52:21.919Z,2.02
2023-03-11T20:54:52.660Z,1.96
2023-03-11T20:57:23.165Z,1.96
2023-03-11T20:59:54.108Z,1.98
2023-03-11T21:02:24.795Z,1.95
2023-03-11T21:04:55.530Z,1.95
2023-03-11T21:07:28.852Z,1.95
2023-03-11T21:09:59.261Z,1.94
2023-03-11T21:12:31.295Z,1.95
2023-03-11T21:15:02.031Z,1.94
2023-03-11T21:17:32.636Z,1.94
2023-03-11T21:20:04.993Z,1.95
2023-03-11T21:22:38.157Z,1.94
2023-03-11T21:25:10.041Z,1.92
2023-03-11T21:27:40.755Z,1.87
2023-03-11T21:30:13.779Z,1.85
2023-03-11T21:32:44.676Z,1.68
2023-03-11T21:35:15.254Z,1.78
2023-03-11T21:37:48.726Z,1.78
2023-03-11T21:40:19.319Z,1.73
2023-03-11T21:42:49.899Z,1.75
2023-03-11T21:45:20.519Z,1.76
2023-03-11T21:47:51.277Z,1.75
2023-03-11T21:50:22.006Z,1.78
2023-03-11T21:52:55.297Z,1.80
2023-03-11T21:55:25.889Z,1.79
2023-03-11T21:57:56.301Z,1.74
2023-03-11T22:00:27.078Z,1.70
2023-03-11T22:02:57.811Z,1.69
2023-03-11T22:05:28.520Z,1.65
2023-03-11T22:08:01.705Z,1.70
2023-03-11T22:10:33.744Z,1.72
2023-03-11T22:13:04.394Z,1.72
2023-03-11T22:15:35.009Z,1.70
2023-03-11T22:18:05.571Z,1.63
2023-03-11T22:20:35.972Z,1.63
2023-03-11T22:23:09.061Z,1.61
2023-03-11T22:25:39.559Z,1.60
2023-03-11T22:28:13.093Z,1.50
2023-03-11T22:30:43.808Z,1.39
2023-03-11T22:33:14.309Z,1.35
2023-03-11T22:35:52.335Z,1.32
2023-03-11T22:38:25.480Z,1.30
2023-03-11T22:40:56.359Z,1.26
2023-03-11T22:43:26.889Z,1.20
2023-03-11T22:45:57.550Z,1.17
2023-03-11T22:48:29.112Z,1.19
2023-03-11T22:51:00.025Z,1.17
2023-03-11T22:53:33.140Z,1.20
2023-03-11T22:56:03.703Z,1.20
2023-03-11T22:58:34.138Z,1.16
2023-03-11T23:01:04.629Z,1.16
2023-03-11T23:03:35.541Z,1.16
2023-03-11T23:06:09.838Z,1.01
2023-03-11T23:08:42.991Z,1.12
2023-03-11T23:11:15.735Z,1.13
2023-03-11T23:13:47.451Z,1.13
2023-03-11T23:16:19.809Z,1.11
2023-03-11T23:18:53.573Z,1.07
2023-03-11T23:21:27.342Z,1.03
2023-03-11T23:24:01.609Z,1.04
2023-03-11T23:26:32.553Z,1.02
2023-03-11T23:29:03.725Z,1.07
2023-03-11T23:31:34.329Z,1.09
2023-03-11T23:34:06.620Z,1.09
2023-03-11T23:36:37.095Z,1.11
2023-03-11T23:39:10.477Z,1.13
2023-03-11T23:41:40.900Z,1.14
2023-03-11T23:44:11.381Z,1.15
2023-03-11T23:46:41.895Z,1.14
2023-03-11T23:49:12.462Z,1.14
2023-03-11T23:51:43.043Z,1.11
2023-03-11T23:54:16.281Z,1.12
2023-03-11T23:56:47.119Z,1.13
2023-03-11T23:59:17.598Z,1.10
